createdAt,value
2018-11-02T00:01:21.409Z,100301.34
2018-11-02T00:03:51.505Z,100306.97
2018-11-02T00:06:21.668Z,100309.26
2018-11-02T00:08:51.535Z,100303.38
2018-11-02T00:11:21.854Z,100299.50
2018-11-02T00:13:52.845Z,100308.23
2018-11-02T00:16:23.219Z,100310.34
2018-11-02T00:18:53.198Z,100320.88
2018-11-02T00:21:22.961Z,100330.36
2018-11-02T00:23:52.749Z,100332.95
2018-11-02T00:26:22.570Z,100323.21
2018-11-02T00:28:52.587Z,100328.23
2018-11-02T00:31:22.985Z,100315.44
2018-11-02T00:33:52.910Z,100317.72
2018-11-02T00:36:22.833Z,100316.06
2018-11-02T00:38:52.636Z,100313.12
2018-11-02T00:41:22.572Z,100303.90
2018-11-02T00:43:52.803Z,100323.21
2018-11-02T00:46:22.914Z,100330.56
2018-11-02T00:48:52.803Z,100325.61
2018-11-02T00:51:22.716Z,100316.97
2018-11-02T00:53:52.461Z,100314.14
2018-11-02T00:56:22.569Z,100315.13
2018-11-02T00:58:52.618Z,100312.34
2018-11-02T01:01:22.489Z,100311.69
2018-11-02T01:03:52.707Z,100326.10
2018-11-02T01:06:22.586Z,100342.94
2018-11-02T01:08:52.977Z,100354.44
2018-11-02T01:11:22.952Z,100349.13
2018-11-02T01:13:54.040Z,100343.14
2018-11-02T01:16:23.959Z,100345.79
2018-11-02T01:18:54.245Z,100351.63
2018-11-02T01:21:24.090Z,100349.97
2018-11-02T01:23:53.866Z,100358.98
2018-11-02T01:26:23.741Z,100355.66
2018-11-02T01:28:53.683Z,100351.48
2018-11-02T01:31:24.048Z,100351.00
2018-11-02T01:33:53.802Z,100352.82
2018-11-02T01:36:24.437Z,100357.49
2018-11-02T01:38:54.938Z,100369.37
2018-11-02T01:41:26.448Z,100367.67
2018-11-02T01:43:56.984Z,100363.66
2018-11-02T01:46:28.657Z,100369.01
2018-11-02T01:48:59.142Z,100371.83
2018-11-02T01:51:30.154Z,100367.88
2018-11-02T01:54:00.972Z,100367.19
2018-11-02T01:57:34.892Z,100360.89
2018-11-02T02:00:04.662Z,100371.58
2018-11-02T02:02:35.061Z,100376.24
2018-11-02T02:05:04.904Z,100375.25
2018-11-02T02:07:34.753Z,100382.78
2018-11-02T02:10:04.724Z,100394.44
2018-11-02T02:12:34.549Z,100400.25
2018-11-02T02:15:04.986Z,100400.26
2018-11-02T02:17:35.340Z,100396.27
2018-11-02T02:20:07.113Z,100401.45
2018-11-02T02:22:37.287Z,100395.61
2018-11-02T02:25:08.129Z,100403.27
2018-11-02T02:27:38.322Z,100409.45
2018-11-02T02:30:11.641Z,100411.27
2018-11-02T02:32:41.489Z,100409.27
2018-11-02T02:35:12.014Z,100410.27
2018-11-02T02:37:42.195Z,100412.27
2018-11-02T02:40:13.317Z,100409.27
2018-11-02T02:42:43.891Z,100414.58
2018-11-02T02:45:14.022Z,100427.86
2018-11-02T02:47:43.846Z,100439.84
2018-11-02T02:50:14.721Z,100443.16
2018-11-02T02:52:45.210Z,100453.14
2018-11-02T02:55:15.698Z,100443.81
2018-11-02T02:57:45.655Z,100444.14
2018-11-02T03:00:15.949Z,100446.27
2018-11-02T03:02:45.793Z,100449.44
2018-11-02T03:05:15.767Z,100453.42
2018-11-02T03:07:45.765Z,100462.55
2018-11-02T03:10:15.553Z,100466.86
2018-11-02T03:12:45.529Z,100471.03
2018-11-02T03:15:15.596Z,100471.17
2018-11-02T03:17:45.442Z,100482.01
2018-11-02T03:20:15.642Z,100490.80
2018-11-02T03:22:45.558Z,100499.78
2018-11-02T03:25:15.590Z,100508.09
2018-11-02T03:27:45.653Z,100514.58
2018-11-02T03:30:15.466Z,100519.05
2018-11-02T03:32:45.649Z,100516.03
2018-11-02T03:35:15.616Z,100519.86
2018-11-02T03:37:45.518Z,100520.52
2018-11-02T03:40:15.723Z,100524.17
2018-11-02T03:42:45.541Z,100521.99
2018-11-02T03:45:15.741Z,100515.46
2018-11-02T03:47:45.519Z,100521.10
2018-11-02T03:50:15.569Z,100506.58
2018-11-02T03:52:45.489Z,100520.05
2018-11-02T03:55:15.493Z,100528.00
2018-11-02T03:57:45.682Z,100526.30
2018-11-02T04:00:15.772Z,100518.30
2018-11-02T04:02:45.878Z,100528.57
2018-11-02T04:05:16.131Z,100541.36
2018-11-02T04:07:46.374Z,100550.77
2018-11-02T04:10:16.530Z,100544.41
2018-11-02T04:12:46.472Z,100539.06
2018-11-02T04:15:16.479Z,100540.67
2018-11-02T04:17:46.685Z,100528.58
2018-11-02T04:20:20.592Z,100544.59
2018-11-02T04:22:50.572Z,100538.53
2018-11-02T04:25:20.516Z,100536.34
2018-11-02T04:27:50.496Z,100546.09
2018-11-02T04:30:20.481Z,100564.30
2018-11-02T04:32:50.549Z,100552.45
2018-11-02T04:35:20.524Z,100550.61
2018-11-02T04:40:13.250Z,100565.82
2018-11-02T04:42:43.170Z,100564.75
2018-11-02T04:45:13.300Z,100563.04
2018-11-02T04:47:43.152Z,100558.17
2018-11-02T04:50:13.405Z,100559.45
2018-11-02T04:52:43.876Z,100562.91
2018-11-02T04:55:13.831Z,100564.50
2018-11-02T04:57:44.687Z,100582.05
2018-11-02T05:00:15.117Z,100593.59
2018-11-02T05:02:46.149Z,100594.13
2018-11-02T05:05:16.959Z,100596.94
2018-11-02T05:07:48.318Z,100590.59
2018-11-02T05:10:19.024Z,100594.04
2018-11-02T05:12:50.983Z,100601.25
2018-11-02T05:15:21.263Z,100606.86
2018-11-02T05:17:52.113Z,100609.42
2018-11-02T05:20:23.259Z,100615.02
2018-11-02T05:22:54.242Z,100617.61
2018-11-02T05:25:24.948Z,100613.58
2018-11-02T05:27:56.586Z,100618.83
2018-11-02T05:31:30.002Z,100623.73
2018-11-02T05:33:59.833Z,100631.72
2018-11-02T05:36:29.691Z,100633.42
2018-11-02T05:38:59.558Z,100633.71
2018-11-02T05:41:29.525Z,100635.61
2018-11-02T05:43:59.607Z,100645.11
2018-11-02T05:46:29.574Z,100648.86
2018-11-02T05:48:59.478Z,100657.32
2018-11-02T05:51:29.646Z,100662.05
2018-11-02T05:53:59.485Z,100668.33
2018-11-02T05:56:29.929Z,100679.91
2018-11-02T05:58:59.775Z,100676.91
2018-11-02T06:01:29.738Z,100679.56
2018-11-02T06:03:59.884Z,100683.69
2018-11-02T06:06:29.608Z,100691.77
2018-11-02T06:08:59.538Z,100699.53
2018-11-02T06:11:29.554Z,100704.77
2018-11-02T06:13:59.467Z,100701.88
2018-11-02T06:16:29.625Z,100706.99
2018-11-02T06:18:59.408Z,100718.41
2018-11-02T06:21:29.526Z,100723.72
2018-11-02T06:24:02.837Z,100704.13
2018-11-02T06:26:32.754Z,100717.87
2018-11-02T06:29:02.577Z,100723.52
2018-11-02T06:31:32.559Z,100732.80
2018-11-02T06:34:02.589Z,100739.42
2018-11-02T06:36:32.709Z,100734.81
2018-11-02T06:39:02.616Z,100739.61
2018-11-02T06:41:32.881Z,100747.64
2018-11-02T06:44:02.694Z,100762.44
2018-11-02T06:46:32.650Z,100772.14
2018-11-02T06:49:02.539Z,100776.19
2018-11-02T06:51:32.521Z,100775.76
2018-11-02T06:54:02.681Z,100772.20
2018-11-02T06:56:32.572Z,100763.60
2018-11-02T06:59:02.564Z,100763.52
2018-11-02T07:01:32.504Z,100772.94
2018-11-02T07:04:02.550Z,100777.55
2018-11-02T07:06:32.530Z,100781.18
2018-11-02T07:09:02.645Z,100801.22
2018-11-02T07:11:32.529Z,100804.70
2018-11-02T07:14:02.559Z,100798.25
2018-11-02T07:16:32.449Z,100796.60
2018-11-02T07:19:02.760Z,100802.94
2018-11-02T07:21:32.541Z,100801.78
2018-11-02T07:24:02.576Z,100794.62
2018-11-02T07:26:32.629Z,100804.42
2018-11-02T07:29:02.476Z,100813.41
2018-11-02T07:31:32.546Z,100817.36
2018-11-02T07:34:02.403Z,100831.14
2018-11-02T07:36:32.401Z,100829.95
2018-11-02T07:39:17.936Z,100835.41
2018-11-02T07:41:47.783Z,100831.25
2018-11-02T07:44:17.929Z,100829.44
2018-11-02T07:46:54.610Z,100838.22
2018-11-02T07:49:24.693Z,100834.86
2018-11-02T07:51:54.589Z,100828.00
2018-11-02T07:54:24.577Z,100834.81
2018-11-02T07:56:54.490Z,100833.77
2018-11-02T07:59:24.562Z,100831.22
2018-11-02T08:01:54.528Z,100815.61
2018-11-02T08:04:24.557Z,100823.70
2018-11-02T08:06:55.070Z,100827.80
2018-11-02T08:09:24.891Z,100831.86
2018-11-02T08:11:54.935Z,100832.61
2018-11-02T08:14:24.826Z,100829.34
2018-11-02T08:16:54.520Z,100830.39
2018-11-02T08:19:24.441Z,100831.41
2018-11-02T08:21:54.564Z,100837.10
2018-11-02T08:24:24.524Z,100836.59
2018-11-02T08:26:55.377Z,100835.45
2018-11-02T08:29:25.421Z,100841.94
2018-11-02T08:31:55.985Z,100839.97
2018-11-02T08:34:26.185Z,100844.80
2018-11-02T08:36:56.341Z,100846.13
2018-11-02T08:39:26.222Z,100847.83
2018-11-02T08:41:56.193Z,100842.48
2018-11-02T08:44:25.991Z,100853.68
2018-11-02T08:46:55.601Z,100852.67
2018-11-02T08:49:25.497Z,100850.13
2018-11-02T08:51:55.732Z,100844.28
2018-11-02T08:54:25.545Z,100842.42
2018-11-02T08:56:55.880Z,100853.95
2018-11-02T08:59:29.525Z,100863.44
2018-11-02T09:01:59.775Z,100870.45
2018-11-02T09:04:29.531Z,100878.33
2018-11-02T09:06:59.672Z,100875.47
2018-11-02T09:09:29.464Z,100883.47
2018-11-02T09:11:59.979Z,100883.47
2018-11-02T09:14:29.796Z,100885.81
2018-11-02T09:16:59.664Z,100890.95
2018-11-02T09:19:29.572Z,100894.28
2018-11-02T09:22:00.017Z,100898.80
2018-11-02T09:24:29.807Z,100899.95
2018-11-02T09:27:00.336Z,100898.28
2018-11-02T09:29:31.052Z,100904.50
2018-11-02T09:32:02.055Z,100901.66
2018-11-02T09:34:32.916Z,100897.31
2018-11-02T09:37:04.420Z,100895.48
2018-11-02T09:39:35.026Z,100895.48
2018-11-02T09:42:06.357Z,100902.98
2018-11-02T09:44:37.153Z,100909.19
2018-11-02T09:47:08.443Z,100901.80
2018-11-02T09:49:39.155Z,100899.80
2018-11-02T09:52:10.162Z,100901.76
2018-11-02T09:54:40.965Z,100907.42
2018-11-02T09:57:12.444Z,100910.05
2018-11-02T09:59:42.983Z,100900.67
2018-11-02T10:02:14.911Z,100910.70
2018-11-02T10:04:45.160Z,100923.43
2018-11-02T10:07:16.093Z,100919.91
2018-11-02T10:09:46.914Z,100918.09
2018-11-02T10:12:18.314Z,100911.31
2018-11-02T10:14:48.925Z,100906.41
2018-11-02T10:17:20.552Z,100897.86
2018-11-02T10:19:51.014Z,100897.69
2018-11-02T10:22:22.048Z,100899.95
2018-11-02T10:24:53.209Z,100892.42
2018-11-02T10:27:24.251Z,100901.89
2018-11-02T10:29:55.007Z,100897.17
2018-11-02T10:32:26.216Z,100894.66
2018-11-02T10:34:57.235Z,100894.11
2018-11-02T10:37:28.090Z,100897.03
2018-11-02T10:39:59.165Z,100903.62
2018-11-02T10:42:30.229Z,100891.25
2018-11-02T10:45:01.321Z,100894.75
2018-11-02T10:47:32.444Z,100897.66
2018-11-02T10:50:02.992Z,100893.96
2018-11-02T10:52:34.014Z,100893.14
2018-11-02T10:55:05.456Z,100895.97
2018-11-02T10:57:36.128Z,100894.89
2018-11-02T11:00:14.036Z,100902.64
2018-11-02T11:02:51.628Z,100903.72
2018-11-02T11:05:22.140Z,100901.52
2018-11-02T11:07:52.265Z,100903.34
2018-11-02T11:10:22.115Z,100907.84
2018-11-02T11:12:52.136Z,100909.42
2018-11-02T11:15:22.058Z,100904.90
2018-11-02T11:17:51.846Z,100897.99
2018-11-02T11:20:21.830Z,100897.20
2018-11-02T11:22:51.704Z,100896.45
2018-11-02T11:25:21.605Z,100890.80
2018-11-02T11:27:51.534Z,100898.80
2018-11-02T11:30:22.078Z,100899.70
2018-11-02T11:32:52.954Z,100891.58
2018-11-02T11:35:23.283Z,100887.09
2018-11-02T11:37:53.109Z,100898.50
2018-11-02T11:40:23.611Z,100900.48
2018-11-02T11:42:54.166Z,100896.73
2018-11-02T11:45:25.799Z,100896.79
2018-11-02T11:47:56.377Z,100899.16
2018-11-02T11:50:27.102Z,100892.94
2018-11-02T11:52:58.319Z,100903.41
2018-11-02T11:55:29.058Z,100889.27
2018-11-02T11:58:00.021Z,100887.84
2018-11-02T12:00:31.017Z,100890.11
2018-11-02T12:03:02.258Z,100877.23
2018-11-02T12:05:33.186Z,100871.03
2018-11-02T12:08:04.025Z,100870.39
2018-11-02T12:10:35.116Z,100869.12
2018-11-02T12:13:06.210Z,100861.91
2018-11-02T12:15:37.503Z,100864.52
2018-11-02T12:18:08.159Z,100860.00
2018-11-02T12:20:39.130Z,100859.68
2018-11-02T12:23:09.942Z,100868.08
2018-11-02T12:25:41.399Z,100865.44
2018-11-02T12:28:11.247Z,100865.04
2018-11-02T12:30:42.053Z,100868.09
2018-11-02T12:33:13.015Z,100876.79
2018-11-02T12:35:43.981Z,100874.27
2018-11-02T12:38:15.358Z,100876.56
2018-11-02T12:40:45.922Z,100890.86
2018-11-02T12:43:17.497Z,100884.84
2018-11-02T12:45:48.152Z,100885.47
2018-11-02T12:48:19.069Z,100879.05
2018-11-02T12:50:49.873Z,100875.31
2018-11-02T12:53:21.248Z,100863.00
2018-11-02T12:55:52.043Z,100872.03
2018-11-02T12:58:23.581Z,100871.14
2018-11-02T13:00:54.276Z,100875.36
2018-11-02T13:03:25.192Z,100879.05
2018-11-02T13:05:56.014Z,100884.39
2018-11-02T13:08:27.519Z,100892.83
2018-11-02T13:10:57.976Z,100888.24
2018-11-02T13:13:29.604Z,100896.38
2018-11-02T13:16:00.178Z,100900.80
2018-11-02T13:18:31.358Z,100904.92
2018-11-02T13:21:02.062Z,100902.15
2018-11-02T13:23:33.109Z,100904.20
2018-11-02T13:26:04.147Z,100913.77
2018-11-02T13:28:35.221Z,100909.55
2018-11-02T13:31:06.080Z,100904.52
2018-11-02T13:33:37.018Z,100901.55
2018-11-02T13:36:08.376Z,100909.50
2018-11-02T13:38:39.067Z,100887.17
2018-11-02T13:41:09.987Z,100894.22
2018-11-02T13:43:41.054Z,100910.06
2018-11-02T13:46:12.080Z,100915.78
2018-11-02T13:48:43.103Z,100918.97
2018-11-02T13:51:14.047Z,100925.45
2018-11-02T13:53:45.463Z,100932.16
2018-11-02T13:56:16.069Z,100928.20
2018-11-02T13:58:48.493Z,100934.67
2018-11-02T14:01:18.542Z,100943.00
2018-11-02T14:03:49.326Z,100937.57
2018-11-02T14:06:20.097Z,100942.77
2018-11-02T14:08:51.101Z,100939.79
2018-11-02T14:11:22.440Z,100941.58
2018-11-02T14:13:53.205Z,100949.45
2018-11-02T14:16:24.096Z,100939.98
2018-11-02T14:18:55.471Z,100941.77
2018-11-02T14:21:26.075Z,100951.23
2018-11-02T14:23:57.063Z,100956.00
2018-11-02T14:26:27.965Z,100947.34
2018-11-02T14:28:59.422Z,100938.70
2018-11-02T14:31:29.956Z,100940.09
2018-11-02T14:34:01.584Z,100943.39
2018-11-02T14:36:32.058Z,100938.27
2018-11-02T14:39:03.458Z,100933.33
2018-11-02T14:41:34.057Z,100943.17
2018-11-02T14:44:05.162Z,100942.62
2018-11-02T14:46:36.428Z,100946.57
2018-11-02T14:49:07.609Z,100934.38
2018-11-02T14:51:38.110Z,100933.41
2018-11-02T14:54:09.188Z,100937.73
2018-11-02T14:56:40.063Z,100946.16
2018-11-02T14:59:11.479Z,100948.39
2018-11-02T15:01:42.019Z,100960.06
2018-11-02T15:04:13.397Z,100965.50
2018-11-02T15:06:43.997Z,100961.69
2018-11-02T15:09:15.466Z,100955.70
2018-11-02T15:11:46.077Z,100950.08
2018-11-02T15:14:17.412Z,100952.66
2018-11-02T15:16:47.933Z,100953.58
2018-11-02T15:19:19.701Z,100959.47
2018-11-02T15:21:50.228Z,100953.48
2018-11-02T15:24:21.076Z,100953.87
2018-11-02T15:26:52.347Z,100957.23
2018-11-02T15:29:23.079Z,100959.47
2018-11-02T15:31:53.982Z,100958.67
2018-11-02T15:34:25.088Z,100964.08
2018-11-02T15:36:56.288Z,100961.64
2018-11-02T15:39:27.399Z,100967.53
2018-11-02T15:41:58.148Z,100965.70
2018-11-02T15:44:29.200Z,100953.93
2018-11-02T15:47:00.062Z,100972.33
2018-11-02T15:49:31.528Z,100982.73
2018-11-02T15:52:02.047Z,100991.95
2018-11-02T15:54:33.548Z,100996.80
2018-11-02T15:57:04.359Z,100999.50
2018-11-02T15:59:35.255Z,100999.33
2018-11-02T16:02:06.288Z,101002.02
2018-11-02T16:04:37.197Z,101007.22
2018-11-02T16:07:08.125Z,101021.42
2018-11-02T16:09:39.074Z,101020.42
2018-11-02T16:12:10.356Z,101023.77
2018-11-02T16:14:41.277Z,101026.25
2018-11-02T16:17:12.012Z,101029.26
2018-11-02T16:19:43.490Z,101024.91
2018-11-02T16:22:14.037Z,101031.44
2018-11-02T16:24:45.285Z,101031.77
2018-11-02T16:27:15.996Z,101026.56
2018-11-02T16:29:47.329Z,101048.13
2018-11-02T16:32:17.959Z,101058.47
2018-11-02T16:34:49.508Z,101057.61
2018-11-02T16:37:20.479Z,101056.89
2018-11-02T16:39:51.205Z,101052.53
2018-11-02T16:42:21.979Z,101060.86
2018-11-02T16:44:53.574Z,101061.17
2018-11-02T16:47:24.373Z,101061.48
2018-11-02T16:49:54.996Z,101057.11
2018-11-02T16:52:26.032Z,101064.25
2018-11-02T16:54:57.468Z,101064.41
2018-11-02T16:57:27.934Z,101071.41
2018-11-02T16:59:59.350Z,101063.38
2018-11-02T17:02:30.498Z,101069.03
2018-11-02T17:05:01.482Z,101065.00
2018-11-02T17:07:32.339Z,101069.66
2018-11-02T17:10:03.025Z,101062.77
2018-11-02T17:12:35.246Z,101076.30
2018-11-02T17:15:12.534Z,101083.59
2018-11-02T17:17:42.572Z,101086.24
2018-11-02T17:20:15.543Z,101088.71
2018-11-02T17:22:46.182Z,101083.52
2018-11-02T17:25:16.075Z,101085.17
2018-11-02T17:27:45.887Z,101083.12
2018-11-02T17:30:17.091Z,101092.57
2018-11-02T17:32:46.951Z,101083.16
2018-11-02T17:35:16.843Z,101091.89
2018-11-02T17:37:46.836Z,101088.67
2018-11-02T17:40:17.267Z,101097.30
2018-11-02T17:42:47.104Z,101090.70
2018-11-02T17:45:16.989Z,101093.41
2018-11-02T17:47:48.586Z,101104.97
2018-11-02T17:50:19.154Z,101103.83
2018-11-02T17:52:50.133Z,101097.84
2018-11-02T17:55:20.997Z,101099.98
2018-11-02T17:57:52.569Z,101100.37
2018-11-02T18:00:23.090Z,101103.90
2018-11-02T18:02:54.480Z,101107.13
2018-11-02T18:05:25.460Z,101112.69
2018-11-02T18:07:57.021Z,101113.95
2018-11-02T18:10:26.937Z,101111.94
2018-11-02T18:12:58.445Z,101116.92
2018-11-02T18:15:29.081Z,101110.95
2018-11-02T18:18:00.054Z,101118.00
2018-11-02T18:20:31.342Z,101120.39
2018-11-02T18:23:02.123Z,101123.61
2018-11-02T18:25:36.836Z,101123.97
2018-11-02T18:28:07.097Z,101132.32
2018-11-02T18:30:37.152Z,101125.55
2018-11-02T18:33:07.103Z,101122.09
2018-11-02T18:35:37.394Z,101122.02
2018-11-02T18:38:08.060Z,101128.61
2018-11-02T18:40:39.426Z,101139.88
2018-11-02T18:43:10.103Z,101144.81
2018-11-02T18:45:41.226Z,101148.25
2018-11-02T18:48:12.265Z,101148.64
2018-11-02T18:50:43.960Z,101157.57
2018-11-02T18:53:13.818Z,101156.19
2018-11-02T18:55:45.416Z,101161.19
2018-11-02T18:58:16.046Z,101163.88
2018-11-02T19:00:48.060Z,101163.50
2018-11-02T19:03:19.029Z,101166.84
2018-11-02T19:05:49.354Z,101168.95
2018-11-02T19:08:20.257Z,101178.86
2018-11-02T19:10:51.876Z,101185.18
2018-11-02T19:13:22.652Z,101174.18
2018-11-02T19:15:54.076Z,101176.53
2018-11-02T19:18:24.860Z,101184.22
2018-11-02T19:20:56.716Z,101180.59
2018-11-02T19:23:27.827Z,101179.51
2018-11-02T19:25:59.152Z,101183.97
2018-11-02T19:28:31.179Z,101190.91
2018-11-02T19:31:03.462Z,101197.17
2018-11-02T19:33:35.831Z,101196.13
2018-11-02T19:36:07.248Z,101201.11
2018-11-02T19:38:38.554Z,101207.17
2018-11-02T19:41:10.670Z,101204.80
2018-11-02T19:43:41.521Z,101198.44
2018-11-02T19:46:14.351Z,101207.22
2018-11-02T19:48:47.332Z,101207.52
2018-11-02T19:51:18.684Z,101197.50
2018-11-02T19:53:50.531Z,101196.94
2018-11-02T19:56:21.484Z,101201.85
2018-11-02T19:58:53.651Z,101200.97
2018-11-02T20:01:25.093Z,101204.55
2018-11-02T20:03:56.062Z,101204.14
2018-11-02T20:06:28.959Z,101208.89
2018-11-02T20:09:02.617Z,101213.68
2018-11-02T20:11:33.634Z,101214.44
2018-11-02T20:14:05.274Z,101214.72
2018-11-02T20:16:36.933Z,101211.77
2018-11-02T20:19:08.364Z,101217.73
2018-11-02T20:21:39.916Z,101216.96
2018-11-02T20:24:11.308Z,101219.78
2018-11-02T20:26:43.247Z,101221.04
2018-11-02T20:29:15.319Z,101220.47
2018-11-02T20:31:46.652Z,101229.08
2018-11-02T20:34:19.974Z,101231.38
2018-11-02T20:36:53.121Z,101217.73
2018-11-02T20:39:24.960Z,101220.55
2018-11-02T20:41:56.434Z,101210.39
2018-11-02T20:44:28.180Z,101206.05
2018-11-02T20:46:59.460Z,101208.56
2018-11-02T20:49:31.201Z,101210.17
2018-11-02T20:52:02.340Z,101214.02
2018-11-02T20:54:34.630Z,101220.81
2018-11-02T20:57:05.600Z,101222.49
2018-11-02T20:59:36.996Z,101223.20
2018-11-02T21:02:08.279Z,101217.41
2018-11-02T21:04:40.454Z,101217.13
2018-11-02T21:07:12.491Z,101213.61
2018-11-02T21:09:43.390Z,101207.94
2018-11-02T21:12:14.340Z,101213.13
2018-11-02T21:14:45.314Z,101217.95
2018-11-02T21:17:16.200Z,101220.25
2018-11-02T21:19:46.700Z,101221.46
2018-11-02T21:22:17.288Z,101223.27
2018-11-02T21:24:48.000Z,101218.10
2018-11-02T21:27:18.434Z,101207.47
2018-11-02T21:29:48.929Z,101206.26
2018-11-02T21:32:18.864Z,101200.94
2018-11-02T21:34:48.822Z,101199.26
2018-11-02T21:37:18.878Z,101204.58
2018-11-02T21:39:48.954Z,101200.47
2018-11-02T21:42:25.973Z,101201.92
2018-11-02T21:44:56.161Z,101209.20
2018-11-02T21:47:26.758Z,101216.34
2018-11-02T21:49:57.057Z,101224.45
2018-11-02T21:52:27.107Z,101231.38
2018-11-02T21:54:57.344Z,101238.65
2018-11-02T21:57:27.725Z,101233.96
2018-11-02T21:59:57.802Z,101236.27
2018-11-02T22:02:27.728Z,101229.27
2018-11-02T22:04:57.728Z,101228.02
2018-11-02T22:07:27.748Z,101224.70
2018-11-02T22:09:57.708Z,101229.59
2018-11-02T22:12:27.539Z,101229.48
2018-11-02T22:14:57.509Z,101207.37
2018-11-02T22:17:27.476Z,101218.85
2018-11-02T22:19:57.688Z,101222.28
2018-11-02T22:22:27.857Z,101225.46
2018-11-02T22:24:58.225Z,101221.60
2018-11-02T22:27:28.590Z,101219.64
2018-11-02T22:29:58.819Z,101215.45
2018-11-02T22:32:28.616Z,101224.53
2018-11-02T22:34:58.862Z,101223.71
2018-11-02T22:37:29.287Z,101227.55
2018-11-02T22:39:59.411Z,101228.78
2018-11-02T22:42:29.377Z,101229.38
2018-11-02T22:44:59.580Z,101237.79
2018-11-02T22:47:29.666Z,101236.21
2018-11-02T22:49:59.841Z,101232.95
2018-11-02T22:52:30.058Z,101239.34
2018-11-02T22:54:59.802Z,101237.36
2018-11-02T22:57:29.988Z,101243.72
2018-11-02T22:59:59.887Z,101251.59
2018-11-02T23:02:29.810Z,101255.00
2018-11-02T23:04:59.975Z,101259.44
2018-11-02T23:07:29.788Z,101268.86
2018-11-02T23:10:00.441Z,101281.11
2018-11-02T23:12:31.257Z,101285.14
2018-11-02T23:15:01.098Z,101284.45
2018-11-02T23:17:31.184Z,101283.10
2018-11-02T23:20:01.236Z,101287.05
2018-11-02T23:22:31.388Z,101279.03
2018-11-02T23:25:01.552Z,101283.05
2018-11-02T23:27:32.312Z,101287.77
2018-11-02T23:30:03.294Z,101283.06
2018-11-02T23:32:34.440Z,101279.39
2018-11-02T23:35:05.785Z,101288.34
2018-11-02T23:37:36.688Z,101286.94
2018-11-02T23:40:08.531Z,101290.53
2018-11-02T23:42:38.634Z,101285.20
2018-11-02T23:45:10.852Z,101278.16
2018-11-02T23:47:44.957Z,101281.48
2018-11-02T23:50:15.034Z,101276.20
2018-11-02T23:52:44.891Z,101282.11
2018-11-02T23:55:15.421Z,101278.34
2018-11-02T23:57:45.752Z,101269.51
